createdAt,value
2022-10-20T00:01:15.920Z,8.50
2022-10-20T00:03:43.888Z,9.15
2022-10-20T00:06:33.784Z,8.48
2022-10-20T00:09:03.786Z,8.90
2022-10-20T00:11:32.333Z,8.98
2022-10-20T00:14:01.054Z,8.50
2022-10-20T00:16:30.284Z,9.00
2022-10-20T00:18:58.028Z,8.65
2022-10-20T00:21:27.349Z,9.25
2022-10-20T00:23:54.918Z,8.30
2022-10-20T00:26:25.100Z,8.75
2022-10-20T00:28:52.651Z,8.40
2022-10-20T00:31:22.006Z,8.63
2022-10-20T00:33:49.376Z,7.95
2022-10-20T00:36:19.031Z,8.88
2022-10-20T00:38:47.193Z,7.95
2022-10-20T00:41:20.560Z,8.40
2022-10-20T00:43:52.525Z,8.95
2022-10-20T00:46:40.441Z,8.18
2022-10-20T00:49:19.955Z,8.07
2022-10-20T00:51:47.522Z,8.38
2022-10-20T00:54:20.517Z,8.27
2022-10-20T00:56:49.325Z,8.98
2022-10-20T00:59:21.302Z,8.48
2022-10-20T01:01:49.170Z,9.05
2022-10-20T01:04:17.808Z,8.25
2022-10-20T01:06:45.217Z,8.70
2022-10-20T01:09:12.945Z,8.73
2022-10-20T01:11:45.567Z,8.20
2022-10-20T01:14:24.752Z,8.77
2022-10-20T01:17:04.361Z,8.73
2022-10-20T01:19:37.580Z,8.77
2022-10-20T01:22:36.387Z,9.63
2022-10-20T01:25:41.278Z,8.82
2022-10-20T01:28:19.462Z,8.88
2022-10-20T01:30:52.757Z,9.30
2022-10-20T01:33:41.183Z,9.35
2022-10-20T01:36:16.740Z,9.27
2022-10-20T01:38:54.566Z,8.73
2022-10-20T01:41:41.402Z,9.95
2022-10-20T01:44:12.275Z,9.25
2022-10-20T01:46:41.877Z,9.18
2022-10-20T01:49:10.134Z,9.52
2022-10-20T01:51:37.486Z,9.13
2022-10-20T01:54:04.965Z,10.27
2022-10-20T01:56:53.615Z,9.70
2022-10-20T01:59:58.940Z,9.90
2022-10-20T02:02:45.496Z,9.98
2022-10-20T02:05:15.511Z,10.48
2022-10-20T02:07:43.720Z,10.20
2022-10-20T02:10:11.367Z,10.57
2022-10-20T02:12:43.097Z,9.95
2022-10-20T02:15:15.203Z,9.82
2022-10-20T02:20:13.605Z,10.93
2022-10-20T02:22:41.334Z,10.00
2022-10-20T02:25:12.438Z,10.48
2022-10-20T02:27:43.492Z,9.80
2022-10-20T02:30:16.898Z,10.68
2022-10-20T02:32:49.452Z,10.52
2022-10-20T02:35:27.456Z,9.95
2022-10-20T02:37:54.731Z,10.63
2022-10-20T02:40:22.471Z,10.20
2022-10-20T02:42:50.004Z,10.48
2022-10-20T02:45:17.573Z,10.20
2022-10-20T02:47:44.932Z,10.57
2022-10-20T02:50:12.519Z,10.68
2022-10-20T02:52:40.609Z,10.50
2022-10-20T02:55:08.393Z,11.60
2022-10-20T02:57:35.885Z,11.13
2022-10-20T03:00:05.787Z,10.85
2022-10-20T03:02:33.077Z,11.27
2022-10-20T03:05:00.316Z,11.50
2022-10-20T03:07:27.632Z,11.25
2022-10-20T03:09:55.091Z,11.35
2022-10-20T03:12:22.445Z,10.88
2022-10-20T03:14:49.703Z,10.75
2022-10-20T03:17:16.971Z,11.35
2022-10-20T03:19:44.163Z,11.40
2022-10-20T03:22:11.444Z,11.73
2022-10-20T03:24:38.774Z,11.48
2022-10-20T03:27:06.241Z,10.98
2022-10-20T03:29:33.558Z,10.90
2022-10-20T03:32:01.748Z,12.02
2022-10-20T03:34:29.016Z,10.63
2022-10-20T03:36:56.611Z,12.05
2022-10-20T03:39:23.828Z,11.68
2022-10-20T03:41:51.137Z,11.60
2022-10-20T03:44:18.386Z,11.40
2022-10-20T03:46:45.561Z,11.10
2022-10-20T03:49:12.991Z,11.80
2022-10-20T03:51:40.321Z,11.65
2022-10-20T03:54:07.602Z,12.65
2022-10-20T03:56:34.928Z,11.48
2022-10-20T04:04:02.396Z,11.88
2022-10-20T04:06:29.788Z,11.93
2022-10-20T04:08:57.065Z,11.32
2022-10-20T04:11:24.492Z,11.45
2022-10-20T04:13:51.791Z,13.05
2022-10-20T04:16:19.099Z,12.13
2022-10-20T04:18:46.496Z,12.55
2022-10-20T04:21:13.682Z,12.02
2022-10-20T04:23:41.013Z,12.48
2022-10-20T04:26:10.413Z,11.70
2022-10-20T04:28:38.318Z,11.85
2022-10-20T04:31:06.105Z,12.10
2022-10-20T04:33:33.873Z,12.82
2022-10-20T04:36:03.794Z,12.85
2022-10-20T04:38:31.770Z,12.57
2022-10-20T04:41:04.022Z,12.88
2022-10-20T04:43:32.925Z,12.50
2022-10-20T04:46:05.300Z,13.02
2022-10-20T04:48:35.352Z,13.13
2022-10-20T04:51:10.678Z,13.60
2022-10-20T04:53:38.144Z,12.98
2022-10-20T04:56:07.800Z,12.48
2022-10-20T04:58:35.946Z,13.23
2022-10-20T05:01:10.281Z,12.90
2022-10-20T05:03:37.636Z,13.88
2022-10-20T05:06:26.003Z,12.95
2022-10-20T05:08:55.676Z,12.60
2022-10-20T05:11:24.929Z,13.38
2022-10-20T05:13:52.332Z,12.85
2022-10-20T05:16:19.860Z,13.73
2022-10-20T05:18:48.535Z,13.13
2022-10-20T05:21:18.586Z,14.23
2022-10-20T05:23:46.456Z,13.13
2022-10-20T05:26:18.783Z,14.38
2022-10-20T05:28:48.299Z,14.38
2022-10-20T05:31:17.106Z,15.02
2022-10-20T05:33:49.323Z,13.82
2022-10-20T05:36:21.775Z,15.30
2022-10-20T05:38:50.245Z,13.52
2022-10-20T05:41:20.664Z,14.00
2022-10-20T05:43:50.249Z,14.10
2022-10-20T05:46:18.319Z,14.38
2022-10-20T05:48:46.169Z,13.50
2022-10-20T05:51:16.066Z,14.35
2022-10-20T05:53:44.586Z,14.98
2022-10-20T05:56:14.072Z,13.85
2022-10-20T05:58:42.579Z,14.60
2022-10-20T06:01:25.109Z,15.20
2022-10-20T06:03:57.502Z,14.13
2022-10-20T06:06:30.247Z,15.07
2022-10-20T06:08:59.820Z,14.20
2022-10-20T06:11:27.738Z,13.48
2022-10-20T06:13:56.913Z,13.18
2022-10-20T06:16:26.325Z,13.68
2022-10-20T06:18:54.106Z,13.57
2022-10-20T06:21:24.530Z,14.00
2022-10-20T06:23:52.095Z,13.38
2022-10-20T06:26:23.142Z,14.27
2022-10-20T06:28:58.583Z,14.00
2022-10-20T06:31:33.982Z,13.63
2022-10-20T06:34:04.152Z,12.68
2022-10-20T06:36:34.078Z,12.95
2022-10-20T06:39:01.890Z,13.05
2022-10-20T06:41:29.182Z,13.35
2022-10-20T06:44:00.191Z,12.60
2022-10-20T06:46:32.419Z,13.20
2022-10-20T06:49:07.079Z,13.35
2022-10-20T06:51:35.501Z,12.60
2022-10-20T06:54:03.375Z,13.43
2022-10-20T06:56:33.328Z,13.27
2022-10-20T06:59:02.111Z,14.02
2022-10-20T07:01:35.132Z,13.10
2022-10-20T07:04:06.016Z,12.73
2022-10-20T07:06:35.814Z,13.02
2022-10-20T07:09:06.250Z,11.50
2022-10-20T07:11:34.328Z,13.13
2022-10-20T07:14:02.645Z,12.43
2022-10-20T07:16:33.014Z,12.18
2022-10-20T07:19:01.318Z,11.57
2022-10-20T07:21:32.541Z,12.13
2022-10-20T07:24:05.827Z,11.45
2022-10-20T07:26:36.014Z,12.48
2022-10-20T07:29:04.763Z,12.63
2022-10-20T07:31:41.912Z,12.30
2022-10-20T07:34:27.970Z,12.60
2022-10-20T07:36:56.787Z,11.27
2022-10-20T07:39:24.918Z,11.57
2022-10-20T07:41:52.618Z,11.40
2022-10-20T07:44:20.270Z,11.95
2022-10-20T07:46:47.715Z,11.73
2022-10-20T07:52:02.680Z,11.35
2022-10-20T07:54:30.698Z,11.30
2022-10-20T07:56:57.937Z,11.95
2022-10-20T07:59:25.355Z,10.95
2022-10-20T08:01:56.130Z,10.73
2022-10-20T08:06:51.990Z,10.70
2022-10-20T08:09:19.283Z,11.38
2022-10-20T08:11:46.593Z,10.85
2022-10-20T08:14:13.974Z,10.82
2022-10-20T08:16:45.010Z,9.60
2022-10-20T08:19:19.474Z,11.98
2022-10-20T08:21:46.765Z,10.60
2022-10-20T08:24:14.047Z,9.55
2022-10-20T08:26:41.432Z,9.45
2022-10-20T08:29:09.786Z,10.07
2022-10-20T08:31:37.054Z,9.88
2022-10-20T08:34:04.766Z,40.70
2022-10-20T08:36:37.399Z,10.40
2022-10-20T08:39:08.619Z,8.75
2022-10-20T08:42:07.594Z,9.82
2022-10-20T08:44:34.925Z,9.60
2022-10-20T08:47:04.824Z,8.93
2022-10-20T08:49:34.784Z,8.68
2022-10-20T08:52:02.721Z,8.82
2022-10-20T08:54:34.232Z,9.23
2022-10-20T08:57:01.683Z,9.40
2022-10-20T08:59:35.509Z,8.85
2022-10-20T09:02:13.644Z,8.50
2022-10-20T09:04:47.831Z,8.88
2022-10-20T09:07:27.583Z,8.75
2022-10-20T09:10:26.714Z,8.20
2022-10-20T09:12:54.070Z,8.95
2022-10-20T09:15:22.923Z,8.45
2022-10-20T09:17:54.109Z,8.57
2022-10-20T09:20:31.907Z,8.55
2022-10-20T09:23:07.855Z,8.80
2022-10-20T09:25:42.104Z,8.23
2022-10-20T09:28:22.851Z,8.18
2022-10-20T09:30:50.696Z,8.48
2022-10-20T09:33:33.518Z,8.35
2022-10-20T09:36:14.948Z,7.93
2022-10-20T09:38:51.245Z,8.05
2022-10-20T09:41:25.756Z,7.30
2022-10-20T09:44:08.976Z,8.38
2022-10-20T09:46:45.583Z,7.40
2022-10-20T09:49:33.813Z,8.60
2022-10-20T09:52:02.913Z,7.30
2022-10-20T09:54:30.876Z,8.02
2022-10-20T09:57:16.433Z,7.72
2022-10-20T09:59:47.226Z,7.38
2022-10-20T10:02:17.701Z,7.90
2022-10-20T10:04:47.729Z,7.35
2022-10-20T10:07:27.247Z,8.05
2022-10-20T10:10:08.638Z,7.93
2022-10-20T10:12:37.302Z,7.65
2022-10-20T10:15:08.362Z,7.20
2022-10-20T10:17:41.533Z,7.50
2022-10-20T10:20:11.842Z,7.18
2022-10-20T10:22:40.448Z,7.47
2022-10-20T10:25:17.050Z,7.20
2022-10-20T10:28:03.516Z,7.35
2022-10-20T10:30:35.888Z,7.75
2022-10-20T10:33:28.112Z,7.72
2022-10-20T10:38:22.882Z,8.15
2022-10-20T10:41:30.415Z,7.35
2022-10-20T10:43:57.592Z,7.30
2022-10-20T10:46:37.012Z,7.80
2022-10-20T10:50:05.792Z,7.57
2022-10-20T10:52:55.278Z,7.63
2022-10-20T10:55:47.701Z,7.40
2022-10-20T10:58:28.052Z,7.47
2022-10-20T11:01:14.480Z,7.47
2022-10-20T11:04:12.794Z,7.75
2022-10-20T11:06:48.862Z,8.02
2022-10-20T11:09:42.587Z,7.60
2022-10-20T11:12:26.914Z,7.70
2022-10-20T11:15:15.580Z,7.32
2022-10-20T11:17:52.094Z,7.38
2022-10-20T11:20:25.174Z,7.10
2022-10-20T11:22:52.406Z,7.00
2022-10-20T11:25:27.646Z,7.55
2022-10-20T11:27:56.663Z,6.93
2022-10-20T11:30:24.104Z,6.78
2022-10-20T11:33:06.042Z,6.90
2022-10-20T11:38:42.199Z,7.18
2022-10-20T11:41:48.299Z,8.10
2022-10-20T11:44:27.737Z,7.80
2022-10-20T11:47:00.604Z,7.10
2022-10-20T11:49:30.681Z,7.43
2022-10-20T11:52:09.044Z,7.07
2022-10-20T11:54:48.283Z,7.32
2022-10-20T11:57:45.000Z,7.20
2022-10-20T12:00:27.519Z,6.80
2022-10-20T12:03:39.793Z,6.82
2022-10-20T12:06:50.962Z,7.07
2022-10-20T12:09:21.090Z,7.18
2022-10-20T12:12:02.499Z,7.25
2022-10-20T12:14:41.554Z,7.45
2022-10-20T12:17:34.071Z,7.40
2022-10-20T12:20:20.270Z,7.03
2022-10-20T12:22:55.734Z,7.57
2022-10-20T12:25:34.269Z,6.93
2022-10-20T12:28:20.347Z,7.38
2022-10-20T12:31:02.661Z,6.97
2022-10-20T12:33:41.262Z,6.95
2022-10-20T12:36:17.820Z,7.07
2022-10-20T12:38:51.023Z,6.80
2022-10-20T12:41:34.281Z,6.85
2022-10-20T12:44:22.480Z,6.90
2022-10-20T12:47:18.805Z,6.95
2022-10-20T12:49:56.190Z,7.50
2022-10-20T12:52:36.019Z,7.55
2022-10-20T12:55:08.613Z,7.10
2022-10-20T12:57:42.100Z,7.15
2022-10-20T13:00:22.217Z,6.25
2022-10-20T13:02:57.786Z,7.43
2022-10-20T13:05:42.824Z,6.70
2022-10-20T13:08:19.684Z,6.97
2022-10-20T13:10:48.543Z,7.13
2022-10-20T13:13:18.701Z,7.10
2022-10-20T13:15:47.577Z,6.75
2022-10-20T13:18:22.041Z,6.97
2022-10-20T13:21:01.860Z,6.72
2022-10-20T13:23:46.362Z,7.40
2022-10-20T13:26:19.499Z,6.82
2022-10-20T13:28:52.582Z,6.95
2022-10-20T13:31:37.152Z,7.15
2022-10-20T13:34:19.235Z,6.30
2022-10-20T13:37:01.624Z,6.60
2022-10-20T13:39:44.462Z,6.50
2022-10-20T13:42:20.557Z,6.60
2022-10-20T13:45:14.905Z,7.07
2022-10-20T13:47:51.198Z,7.18
2022-10-20T13:50:38.526Z,6.38
2022-10-20T13:53:22.468Z,6.95
2022-10-20T13:56:15.866Z,6.68
2022-10-20T13:59:18.667Z,6.57
2022-10-20T14:01:51.170Z,6.00
2022-10-20T14:04:37.762Z,5.82
2022-10-20T14:07:08.852Z,6.55
2022-10-20T14:09:38.596Z,6.07
2022-10-20T14:12:28.249Z,6.35
2022-10-20T14:15:02.124Z,6.63
2022-10-20T14:17:29.709Z,6.38
2022-10-20T14:20:19.094Z,6.72
2022-10-20T14:22:47.315Z,6.38
2022-10-20T14:25:15.780Z,6.82
2022-10-20T14:27:43.436Z,7.10
2022-10-20T14:30:16.975Z,6.72
2022-10-20T14:32:46.654Z,6.45
2022-10-20T14:35:30.030Z,6.72
2022-10-20T14:38:03.039Z,7.00
2022-10-20T14:40:33.450Z,6.93
2022-10-20T14:43:13.371Z,7.40
2022-10-20T14:45:40.906Z,6.43
2022-10-20T14:48:15.903Z,7.60
2022-10-20T14:50:43.364Z,6.80
2022-10-20T14:53:19.440Z,6.55
2022-10-20T14:55:46.931Z,6.80
2022-10-20T14:58:55.946Z,6.60
2022-10-20T15:01:29.416Z,6.85
2022-10-20T15:04:30.001Z,6.90
2022-10-20T15:07:32.873Z,6.88
2022-10-20T15:10:10.003Z,6.40
2022-10-20T15:12:37.651Z,6.72
2022-10-20T15:15:11.416Z,6.70
2022-10-20T15:17:42.189Z,6.53
2022-10-20T15:20:34.471Z,6.80
